createdAt,value
2023-12-07T09:10:22.591Z,0.80
2023-12-07T09:15:16.365Z,1.10
2023-12-07T09:20:14.831Z,1.30
2023-12-07T09:25:10.059Z,1.50
2023-12-07T09:39:25.679Z,2.00
2023-12-07T09:44:19.967Z,2.20
2023-12-07T09:49:13.837Z,2.40
2023-12-07T09:54:07.986Z,2.50
2023-12-07T09:59:03.587Z,2.80
2023-12-07T10:04:18.877Z,3.10
2023-12-07T10:09:17.705Z,3.40
2023-12-07T10:14:16.194Z,3.60
2023-12-07T10:19:29.581Z,3.90
2023-12-07T10:24:28.010Z,4.10
2023-12-07T10:29:30.889Z,4.40
2023-12-07T10:34:29.016Z,4.70
2023-12-07T10:39:29.492Z,4.90
2023-12-07T10:44:31.206Z,5.20
2023-12-07T10:49:34.116Z,5.50
2023-12-07T10:54:38.041Z,5.70
2023-12-07T10:59:35.760Z,5.90
2023-12-07T11:04:30.848Z,6.10
2023-12-07T11:09:30.813Z,6.20
2023-12-07T11:14:25.439Z,6.60
2023-12-07T11:19:47.415Z,6.90
2023-12-07T11:24:54.038Z,6.60
2023-12-07T11:29:49.387Z,6.80
2023-12-07T11:34:44.051Z,7.10
2023-12-07T11:39:40.233Z,7.30
2023-12-07T11:44:36.663Z,7.50
2023-12-07T11:49:36.088Z,7.40
2023-12-07T11:54:32.349Z,7.80
2023-12-07T11:59:32.057Z,7.80
2023-12-07T12:04:28.685Z,8.10
2023-12-07T12:09:29.930Z,8.60
2023-12-07T12:14:28.876Z,8.70
2023-12-07T12:19:31.239Z,8.60
2023-12-07T12:24:26.915Z,8.70
2023-12-07T12:29:28.165Z,9.60
2023-12-07T12:34:29.202Z,9.80
2023-12-07T12:39:33.553Z,9.60
2023-12-07T12:44:34.057Z,9.70
2023-12-07T12:49:39.175Z,10.10
2023-12-07T12:54:34.878Z,10.20
2023-12-07T12:59:28.663Z,10.50
2023-12-07T13:04:22.784Z,10.50
2023-12-07T13:09:19.027Z,10.60
2023-12-07T13:14:13.421Z,10.20
2023-12-07T13:19:08.281Z,9.00
2023-12-07T13:24:03.007Z,9.20
2023-12-07T13:28:59.025Z,9.70
2023-12-07T13:33:56.634Z,9.20
2023-12-07T13:38:52.271Z,8.10
2023-12-07T13:43:46.195Z,8.60
2023-12-07T13:48:42.211Z,8.40
2023-12-07T13:53:37.261Z,7.10
2023-12-07T13:58:31.028Z,6.10
2023-12-07T14:03:25.368Z,5.50
2023-12-07T14:08:22.084Z,5.10
2023-12-07T14:13:15.904Z,4.60
2023-12-07T14:18:10.114Z,4.30
2023-12-07T14:23:06.002Z,4.20
2023-12-07T14:28:01.380Z,3.90
2023-12-07T14:32:54.962Z,3.60
2023-12-07T14:37:48.971Z,3.40
2023-12-07T14:42:42.749Z,3.20
2023-12-07T14:47:37.990Z,2.90
2023-12-07T14:52:31.663Z,2.70
2023-12-07T14:57:25.291Z,2.60
2023-12-07T15:02:18.819Z,2.40
2023-12-07T15:07:14.506Z,2.20
2023-12-07T15:12:09.132Z,1.90
2023-12-07T15:17:02.804Z,1.70
2023-12-07T15:21:56.601Z,1.60
2023-12-07T15:26:52.149Z,1.60
2023-12-07T15:31:45.830Z,1.40
2023-12-07T15:36:39.508Z,1.30
2023-12-07T15:41:33.148Z,1.10
2023-12-07T15:46:28.367Z,1.00
2023-12-07T15:51:22.332Z,0.80
2023-12-07T15:56:21.918Z,0.80
2023-12-07T16:01:19.324Z,0.70
2023-12-07T16:06:14.797Z,0.70
2023-12-07T16:11:08.582Z,0.50
2023-12-07T16:16:03.418Z,0.40
2023-12-07T16:20:57.192Z,0.30
2023-12-07T16:25:52.347Z,0.20
2023-12-07T16:30:49.156Z,0.10
2023-12-07T16:35:43.272Z,0.10
2023-12-07T16:40:36.992Z,0.00
2023-12-07T16:45:32.923Z,0.00
2023-12-07T16:50:28.137Z,-0.10
2023-12-07T16:55:21.721Z,-0.10
2023-12-07T17:00:16.605Z,-0.20
2023-12-07T17:05:11.929Z,-0.30
2023-12-07T17:10:06.502Z,-0.50
2023-12-07T17:15:00.451Z,-0.50
2023-12-07T17:19:55.106Z,-0.50
2023-12-07T17:24:50.475Z,-0.60
2023-12-07T17:29:43.990Z,-0.70
2023-12-07T17:34:38.850Z,-0.80
